Time;durP1;ratioP1;P1;durP2;ratioP2;P2;SDS_P1;SDS_P2;PMS_P1;PMS_P2;Temp;Humidity;BMP_temperature;BMP_pressure;BME280_temperature;BME280_humidity;BME280_pressure;Samples;Min_cycle;Max_cycle;Signal;HPM_P1;HPM_P2
2024/01/05 00:01:09;;;;;;;12.57;5.30;;;5.00;99.90;;;;;;5083654;28;20012;-91
2024/01/05 00:03:35;;;;;;;7.95;4.78;;;4.90;99.90;;;;;;5082317;28;20025;-91
2024/01/05 00:06:00;;;;;;;8.63;5.25;;;5.00;99.90;;;;;;5082918;28;20055;-90
2024/01/05 00:08:26;;;;;;;11.85;5.65;;;4.90;99.90;;;;;;5081626;28;20024;-92
2024/01/05 00:10:52;;;;;;;6.38;5.13;;;4.90;99.90;;;;;;5081925;28;20098;-90
2024/01/05 00:13:17;;;;;;;6.63;5.25;;;4.90;99.90;;;;;;5082014;28;20028;-92
2024/01/05 00:15:43;;;;;;;11.65;6.18;;;4.90;99.90;;;;;;5063620;28;20031;-91
2024/01/05 00:18:10;;;;;;;7.25;5.15;;;4.90;99.90;;;;;;5081811;28;20040;-91
2024/01/05 00:20:35;;;;;;;9.20;6.07;;;4.90;99.90;;;;;;5063316;28;20496;-92
2024/01/05 00:23:01;;;;;;;9.82;5.35;;;4.90;99.90;;;;;;5080350;28;20067;-90
2024/01/05 00:25:27;;;;;;;11.10;5.82;;;4.90;99.90;;;;;;5081043;28;20693;-92
2024/01/05 00:27:52;;;;;;;10.38;4.97;;;4.90;99.90;;;;;;5080524;28;20028;-95
2024/01/05 00:30:19;;;;;;;9.15;5.22;;;4.90;99.90;;;;;;5080585;28;20036;-91
2024/01/05 00:32:45;;;;;;;7.70;5.07;;;4.80;99.90;;;;;;5080601;28;20017;-91
2024/01/05 00:35:11;;;;;;;9.48;4.68;;;4.80;99.90;;;;;;5064456;28;20028;-91
2024/01/05 00:37:36;;;;;;;10.50;5.63;;;4.90;99.90;;;;;;5067185;28;20021;-91
2024/01/05 00:40:03;;;;;;;8.85;5.45;;;4.90;99.90;;;;;;5084582;28;20016;-91
2024/01/05 00:42:29;;;;;;;9.63;5.22;;;4.90;99.90;;;;;;5083231;28;20024;-91
2024/01/05 00:44:54;;;;;;;7.63;3.72;;;4.80;99.90;;;;;;5082130;28;20044;-91
2024/01/05 00:47:20;;;;;;;13.27;4.65;;;4.80;99.90;;;;;;5081550;28;20052;-90
2024/01/05 00:49:46;;;;;;;7.40;5.38;;;4.70;99.90;;;;;;5074485;28;20051;-89
2024/01/05 00:52:12;;;;;;;9.18;5.07;;;4.80;99.90;;;;;;5082460;28;20032;-90
2024/01/05 00:54:38;;;;;;;8.90;5.32;;;4.80;99.90;;;;;;5081501;28;20028;-93
2024/01/05 00:57:04;;;;;;;9.63;5.85;;;4.80;99.90;;;;;;5082342;28;20503;-91
2024/01/05 00:59:30;;;;;;;6.93;4.85;;;4.80;99.90;;;;;;5082312;28;20020;-91
2024/01/05 01:01:57;;;;;;;11.20;5.47;;;4.80;99.90;;;;;;5077665;28;20114;-89
2024/01/05 01:04:23;;;;;;;11.85;5.95;;;4.80;99.90;;;;;;5082378;28;20028;-93
2024/01/05 01:06:48;;;;;;;9.45;4.57;;;4.70;99.90;;;;;;5082054;28;20032;-93
2024/01/05 01:09:14;;;;;;;12.82;4.88;;;4.70;99.90;;;;;;5080855;28;20028;-92
2024/01/05 01:11:40;;;;;;;7.80;4.50;;;4.60;99.90;;;;;;5063187;28;20031;-92
2024/01/05 01:14:06;;;;;;;6.32;4.25;;;4.60;99.90;;;;;;5080827;28;20028;-89
2024/01/05 01:16:32;;;;;;;7.00;3.97;;;4.60;99.90;;;;;;5082335;28;20020;-91
2024/01/05 01:18:58;;;;;;;8.60;4.20;;;4.60;99.90;;;;;;5080668;28;20021;-92
2024/01/05 01:21:23;;;;;;;10.50;4.97;;;4.50;99.90;;;;;;5080970;28;20068;-92
2024/01/05 01:23:51;;;;;;;8.07;5.22;;;4.50;99.90;;;;;;5080035;28;20021;-91
2024/01/05 01:26:16;;;;;;;9.40;4.75;;;4.50;99.90;;;;;;5079670;28;20054;-88
2024/01/05 01:28:42;;;;;;;8.05;4.85;;;4.50;99.90;;;;;;5080596;28;20052;-91
2024/01/05 01:31:07;;;;;;;7.35;4.65;;;4.50;99.90;;;;;;5080411;28;20052;-93
2024/01/05 01:33:33;;;;;;;7.22;5.18;;;4.40;99.90;;;;;;5080903;28;20050;-92
2024/01/05 01:35:59;;;;;;;11.55;4.88;;;4.40;99.90;;;;;;5064093;28;20033;-92
2024/01/05 01:38:24;;;;;;;8.18;4.43;;;4.40;99.90;;;;;;5081699;28;20032;-90
2024/01/05 01:40:50;;;;;;;6.38;4.18;;;4.40;99.90;;;;;;5082229;28;20040;-93
2024/01/05 01:43:18;;;;;;;10.05;4.75;;;4.40;99.90;;;;;;5083002;28;20028;-91
2024/01/05 01:45:44;;;;;;;;;;;4.40;99.90;;;;;;5064559;28;20445;-91
2024/01/05 01:48:10;;;;;;;9.95;4.05;;;4.30;99.90;;;;;;5081670;28;19912;-91
2024/01/05 01:50:36;;;;;;;6.65;4.30;;;4.20;99.90;;;;;;5070372;28;20028;-91
2024/01/05 01:53:02;;;;;;;8.23;4.45;;;4.20;99.90;;;;;;5060744;28;20120;-90
2024/01/05 01:55:27;;;;;;;8.52;3.58;;;4.20;99.90;;;;;;5081391;28;20031;-93
2024/01/05 01:57:53;;;;;;;7.13;4.15;;;4.20;99.90;;;;;;5069695;28;20021;-90
2024/01/05 02:00:19;;;;;;;7.20;4.45;;;4.20;99.90;;;;;;5044030;28;20025;-93
2024/01/05 02:02:46;;;;;;;5.80;4.50;;;4.20;99.90;;;;;;5073719;28;20025;-90
2024/01/05 02:05:12;;;;;;;7.63;4.32;;;4.20;99.90;;;;;;5080203;28;20035;-90
2024/01/05 02:07:38;;;;;;;5.70;4.28;;;4.20;99.90;;;;;;5080813;28;20024;-91
2024/01/05 02:10:04;;;;;;;7.80;3.75;;;4.20;99.90;;;;;;5076861;28;20033;-89
2024/01/05 02:12:29;;;;;;;7.97;5.13;;;4.20;99.90;;;;;;5081773;28;20532;-91
2024/01/05 02:14:55;;;;;;;6.40;4.13;;;4.30;99.90;;;;;;5080204;28;20025;-91
2024/01/05 02:17:47;;;;;;;10.23;5.22;;;4.20;99.90;;;;;;5079783;28;20040;-92
2024/01/05 02:20:12;;;;;;;8.95;4.15;;;4.20;99.90;;;;;;5060303;28;20502;-89
2024/01/05 02:22:40;;;;;;;9.18;5.32;;;4.20;99.90;;;;;;5084362;28;20017;-90
2024/01/05 02:25:06;;;;;;;9.48;5.35;;;4.20;99.90;;;;;;5080956;28;20056;-91
2024/01/05 02:27:32;;;;;;;7.82;4.95;;;4.20;99.90;;;;;;5072507;28;20026;-93
2024/01/05 02:29:58;;;;;;;8.50;4.80;;;4.20;99.90;;;;;;5063397;28;20035;-91
2024/01/05 02:32:23;;;;;;;9.45;5.35;;;4.20;99.90;;;;;;5081376;28;20024;-91
2024/01/05 02:34:49;;;;;;;9.07;5.20;;;4.30;99.90;;;;;;5073256;28;20017;-93
2024/01/05 02:37:15;;;;;;;12.38;5.70;;;4.20;99.90;;;;;;5085064;28;20035;-92
2024/01/05 02:39:40;;;;;;;8.35;4.68;;;4.20;99.90;;;;;;5066870;28;20024;-91
2024/01/05 02:42:06;;;;;;;9.90;5.10;;;4.20;99.90;;;;;;5085077;28;20012;-90
2024/01/05 02:44:31;;;;;;;8.85;4.50;;;4.20;99.90;;;;;;5084157;28;20025;-92
2024/01/05 02:46:57;;;;;;;11.73;5.50;;;4.20;99.90;;;;;;5084925;28;20059;-91
2024/01/05 02:49:23;;;;;;;10.43;4.68;;;4.10;99.90;;;;;;5085617;28;20318;-91
2024/01/05 02:51:48;;;;;;;12.95;7.03;;;4.10;99.90;;;;;;5084528;28;20625;-91
2024/01/05 02:54:14;;;;;;;6.80;4.40;;;4.10;99.90;;;;;;5084066;28;20025;-91
2024/01/05 02:56:39;;;;;;;7.30;5.03;;;4.10;99.90;;;;;;5084074;28;20021;-91
2024/01/05 02:59:06;;;;;;;8.65;5.32;;;4.10;99.90;;;;;;5084710;28;20073;-90
2024/01/05 03:01:32;;;;;;;9.35;4.22;;;4.10;99.90;;;;;;5084266;28;20055;-90
2024/01/05 03:04:00;;;;;;;9.63;4.57;;;4.20;99.90;;;;;;5085069;28;20024;-91
2024/01/05 03:06:26;;;;;;;8.18;5.05;;;4.20;99.90;;;;;;5084032;28;20029;-91
2024/01/05 03:08:52;;;;;;;10.65;5.05;;;4.20;99.90;;;;;;5082656;28;20039;-91
2024/01/05 03:11:17;;;;;;;7.40;5.05;;;4.20;99.90;;;;;;5079018;28;20032;-91
2024/01/05 03:13:43;;;;;;;10.73;5.72;;;4.20;99.90;;;;;;5082148;28;20020;-92
2024/01/05 03:16:09;;;;;;;10.13;5.85;;;4.30;99.90;;;;;;5083850;28;20123;-89
2024/01/05 03:18:35;;;;;;;9.02;5.13;;;4.20;99.90;;;;;;5083719;28;20512;-90
2024/01/05 03:21:00;;;;;;;9.63;4.68;;;4.20;99.90;;;;;;5082794;28;20048;-93
2024/01/05 03:23:26;;;;;;;6.22;4.20;;;4.20;99.90;;;;;;5084104;28;20031;-90
2024/01/05 03:25:52;;;;;;;9.82;4.97;;;4.30;99.90;;;;;;5075025;28;20047;-90
2024/01/05 03:28:18;;;;;;;9.73;4.00;;;4.30;99.90;;;;;;5084637;28;20020;-91
2024/01/05 03:30:44;;;;;;;8.70;4.70;;;4.30;99.90;;;;;;5083580;28;20443;-92
2024/01/05 03:33:10;;;;;;;8.10;4.47;;;4.30;99.90;;;;;;5083780;28;20020;-92
2024/01/05 03:35:39;;;;;;;7.25;4.53;;;4.30;99.90;;;;;;5066117;28;20032;-91
2024/01/05 03:38:04;;;;;;;6.75;4.13;;;4.20;99.90;;;;;;5084646;28;20080;-93
2024/01/05 03:40:30;;;;;;;9.30;4.35;;;4.20;99.90;;;;;;5083341;28;20422;-91
2024/01/05 03:42:56;;;;;;;8.48;4.55;;;4.20;99.90;;;;;;5084775;28;20028;-93
2024/01/05 03:45:21;;;;;;;8.85;4.68;;;4.10;99.90;;;;;;5083508;28;20084;-91
2024/01/05 03:47:47;;;;;;;9.20;3.75;;;4.20;99.90;;;;;;5084093;28;20410;-92
2024/01/05 03:50:13;;;;;;;7.03;3.88;;;4.20;99.90;;;;;;5082673;28;20090;-91
2024/01/05 03:52:39;;;;;;;8.65;4.75;;;4.30;99.90;;;;;;5075206;28;20418;-91
2024/01/05 03:55:04;;;;;;;8.43;5.22;;;4.30;99.90;;;;;;5083142;28;20355;-90
2024/01/05 03:57:30;;;;;;;5.88;3.85;;;4.30;99.90;;;;;;5083093;28;20031;-91
2024/01/05 03:59:56;;;;;;;7.45;4.93;;;4.30;99.90;;;;;;5085596;28;20392;-92
2024/01/05 04:02:21;;;;;;;6.75;3.38;;;4.30;99.90;;;;;;5084256;28;20098;-90
2024/01/05 04:04:47;;;;;;;8.35;3.92;;;4.30;99.90;;;;;;5083884;28;20029;-91
2024/01/05 04:07:13;;;;;;;5.78;3.45;;;4.30;99.90;;;;;;5073897;28;20021;-92
2024/01/05 04:09:39;;;;;;;8.52;3.75;;;4.30;99.90;;;;;;5082169;28;20024;-94
2024/01/05 04:12:05;;;;;;;4.72;3.03;;;4.30;99.90;;;;;;5083034;28;20025;-94
2024/01/05 04:14:31;;;;;;;10.50;4.72;;;4.40;99.90;;;;;;5077847;28;20036;-91
2024/01/05 04:16:56;;;;;;;7.65;3.17;;;4.40;99.90;;;;;;5081948;28;20024;-93
2024/01/05 04:19:22;;;;;;;5.63;4.07;;;4.50;99.90;;;;;;5082264;28;20017;-92
2024/01/05 04:21:48;;;;;;;10.50;3.97;;;4.40;99.90;;;;;;5081379;28;20027;-91
2024/01/05 04:24:14;;;;;;;8.77;4.35;;;4.40;99.90;;;;;;5082893;28;20024;-92
2024/01/05 04:26:40;;;;;;;6.45;3.58;;;4.40;99.90;;;;;;5082380;28;20166;-91
2024/01/05 04:29:06;;;;;;;7.03;3.65;;;4.50;99.90;;;;;;5082030;28;20039;-93
2024/01/05 04:31:32;;;;;;;5.45;3.78;;;4.40;99.90;;;;;;5082655;28;20031;-92
2024/01/05 04:33:57;;;;;;;8.75;5.00;;;4.50;99.90;;;;;;5083224;28;20054;-91
2024/01/05 04:36:23;;;;;;;6.55;4.50;;;4.40;99.90;;;;;;5082658;28;20594;-94
2024/01/05 04:38:49;;;;;;;7.40;4.15;;;4.50;99.90;;;;;;5069667;28;20492;-93
2024/01/05 04:41:16;;;;;;;7.70;4.00;;;4.50;99.90;;;;;;5061000;28;20087;-90
2024/01/05 04:43:45;;;;;;;7.78;3.13;;;4.50;99.90;;;;;;5075726;28;20057;-90
2024/01/05 04:46:11;;;;;;;7.82;3.92;;;4.60;99.90;;;;;;5064729;28;20440;-91
2024/01/05 04:48:37;;;;;;;9.18;4.43;;;4.60;99.90;;;;;;5079481;28;20087;-89
2024/01/05 04:51:03;;;;;;;6.03;3.88;;;4.60;99.90;;;;;;5068092;28;20020;-91
2024/01/05 04:53:28;;;;;;;6.78;3.08;;;4.70;99.90;;;;;;5080629;28;20016;-93
2024/01/05 04:55:54;;;;;;;7.00;2.70;;;4.70;99.90;;;;;;5064071;28;20217;-92
2024/01/05 04:58:20;;;;;;;3.80;3.10;;;4.70;99.90;;;;;;5081528;28;20017;-91
2024/01/05 05:00:46;;;;;;;3.97;2.35;;;4.70;99.90;;;;;;5081647;28;20227;-92
2024/01/05 05:03:13;;;;;;;3.78;2.75;;;4.70;99.90;;;;;;5081466;28;20047;-90
2024/01/05 05:05:39;;;;;;;7.32;3.28;;;4.70;99.90;;;;;;5062575;28;20021;-92
2024/01/05 05:08:05;;;;;;;5.50;3.30;;;4.70;99.90;;;;;;5081364;28;20021;-92
2024/01/05 05:10:31;;;;;;;5.18;2.78;;;4.80;99.90;;;;;;5072079;28;20029;-91
2024/01/05 05:12:56;;;;;;;7.88;2.88;;;4.70;99.90;;;;;;5081587;28;20047;-92
2024/01/05 05:15:22;;;;;;;5.38;2.60;;;4.70;99.90;;;;;;5081186;28;20698;-90
2024/01/05 05:17:47;;;;;;;7.70;2.45;;;4.70;99.90;;;;;;5081280;28;20568;-92
2024/01/05 05:20:13;;;;;;;8.10;2.65;;;4.80;99.90;;;;;;5082595;28;20025;-91
2024/01/05 05:22:39;;;;;;;9.57;2.70;;;4.80;99.90;;;;;;5082510;28;20028;-89
2024/01/05 05:25:05;;;;;;;3.22;1.67;;;4.80;99.90;;;;;;5064809;28;20032;-91
2024/01/05 05:27:31;;;;;;;3.72;2.42;;;4.80;99.90;;;;;;5082011;28;20022;-90
2024/01/05 05:29:57;;;;;;;3.85;2.83;;;4.80;99.90;;;;;;5078318;28;20111;-91
2024/01/05 05:32:23;;;;;;;5.20;2.63;;;4.90;99.90;;;;;;5063910;28;20074;-90
2024/01/05 05:34:50;;;;;;;5.13;2.22;;;4.90;99.90;;;;;;5081222;28;20436;-91
2024/01/05 05:37:16;;;;;;;7.57;2.90;;;4.90;99.90;;;;;;5081400;28;20482;-91
2024/01/05 05:39:41;;;;;;;10.63;3.45;;;4.90;99.90;;;;;;5081166;28;20085;-92
2024/01/05 05:42:07;;;;;;;6.15;2.42;;;4.90;99.90;;;;;;5081521;28;20047;-92
2024/01/05 05:44:33;;;;;;;5.43;2.85;;;4.90;99.90;;;;;;5063761;28;20723;-92
2024/01/05 05:46:58;;;;;;;6.38;2.80;;;5.00;99.90;;;;;;5081787;28;20044;-91
2024/01/05 05:49:24;;;;;;;5.72;2.25;;;5.00;99.90;;;;;;5081091;28;20025;-93
2024/01/05 05:51:50;;;;;;;5.50;2.50;;;5.00;99.90;;;;;;5082047;28;20029;-91
2024/01/05 05:54:15;;;;;;;5.63;2.85;;;5.00;99.90;;;;;;5080933;28;20510;-92
2024/01/05 05:56:41;;;;;;;12.18;11.00;;;5.00;99.90;;;;;;5073001;28;20029;-91
2024/01/05 05:59:07;;;;;;;7.60;4.80;;;5.00;99.90;;;;;;5063520;28;20036;-91
2024/01/05 06:01:32;;;;;;;4.65;2.97;;;5.00;99.90;;;;;;5079288;28;20028;-91
2024/01/05 06:03:58;;;;;;;2.88;1.67;;;5.10;99.90;;;;;;5079986;28;20276;-92
2024/01/05 06:06:24;;;;;;;5.20;2.90;;;5.10;99.90;;;;;;5080260;28;20051;-91
2024/01/05 06:08:51;;;;;;;5.63;2.28;;;5.10;99.90;;;;;;5058018;28;20659;-92
2024/01/05 06:11:18;;;;;;;5.13;2.60;;;5.10;99.90;;;;;;5080577;28;20024;-89
2024/01/05 06:13:47;;;;;;;6.22;2.65;;;5.10;99.90;;;;;;5083874;28;20029;-90
2024/01/05 06:16:14;;;;;;;6.50;2.83;;;5.10;99.90;;;;;;5085535;28;20017;-90
2024/01/05 06:18:40;;;;;;;4.72;2.90;;;5.00;99.90;;;;;;5064516;28;20021;-89
2024/01/05 06:21:05;;;;;;;6.25;2.83;;;5.10;99.90;;;;;;5080479;28;20024;-91
2024/01/05 06:23:32;;;;;;;4.72;2.92;;;5.10;99.90;;;;;;5085377;28;20063;-92
2024/01/05 06:25:58;;;;;;;7.25;2.88;;;5.10;99.90;;;;;;5084240;28;20031;-93
2024/01/05 06:28:24;;;;;;;10.55;3.92;;;5.10;99.90;;;;;;5085504;28;20029;-93
2024/01/05 06:30:49;;;;;;;7.45;3.28;;;5.10;99.90;;;;;;5084516;28;20055;-91
2024/01/05 06:33:15;;;;;;;8.88;3.92;;;5.20;99.90;;;;;;5050980;28;20025;-91
2024/01/05 06:35:41;;;;;;;5.57;3.35;;;5.20;99.90;;;;;;5084644;28;20025;-91
2024/01/05 06:38:07;;;;;;;6.93;2.97;;;5.20;99.90;;;;;;5084777;28;20035;-91
2024/01/05 06:40:32;;;;;;;9.65;3.45;;;5.20;99.90;;;;;;5081172;28;20023;-91
2024/01/05 06:42:58;;;;;;;5.00;3.08;;;5.20;99.90;;;;;;5066850;28;20032;-92
2024/01/05 06:45:26;;;;;;;6.43;3.53;;;5.30;99.90;;;;;;5084160;28;20031;-93
2024/01/05 06:47:52;;;;;;;7.25;4.18;;;5.20;99.90;;;;;;5084155;28;20054;-91
2024/01/05 06:50:18;;;;;;;7.78;4.45;;;5.20;99.90;;;;;;5084098;28;20028;-90
2024/01/05 06:52:44;;;;;;;6.50;4.20;;;5.30;99.90;;;;;;5067628;28;20383;-90
2024/01/05 06:55:09;;;;;;;7.50;3.85;;;5.30;99.90;;;;;;5077051;28;20029;-93
2024/01/05 06:57:36;;;;;;;8.48;3.53;;;5.40;99.90;;;;;;5081947;28;20040;-91
2024/01/05 07:00:11;;;;;;;7.95;2.97;;;5.40;99.90;;;;;;5083534;28;20074;-93
2024/01/05 07:02:37;;;;;;;5.20;2.60;;;5.40;99.90;;;;;;5083413;28;20050;-91
2024/01/05 07:05:03;;;;;;;6.72;2.63;;;5.50;99.90;;;;;;5083432;28;20024;-91
2024/01/05 07:07:30;;;;;;;6.75;4.10;;;5.50;99.90;;;;;;5082453;28;20453;-91
2024/01/05 07:09:56;;;;;;;8.00;3.05;;;5.50;99.90;;;;;;5083310;28;20028;-92
2024/01/05 07:12:22;;;;;;;4.55;2.40;;;5.50;99.90;;;;;;5084790;28;20027;-91
2024/01/05 07:14:48;;;;;;;5.22;3.78;;;5.50;99.90;;;;;;5084835;28;20039;-90
2024/01/05 07:17:14;;;;;;;6.90;2.88;;;5.60;99.90;;;;;;5084894;28;20017;-91
2024/01/05 07:19:40;;;;;;;4.47;3.10;;;5.70;99.90;;;;;;5066268;28;20025;-90
2024/01/05 07:22:07;;;;;;;7.10;3.38;;;5.70;99.90;;;;;;5082863;28;20028;-91
2024/01/05 07:24:37;;;;;;;8.90;2.75;;;5.70;99.90;;;;;;5084435;28;20028;-91
2024/01/05 07:27:03;;;;;;;7.90;2.90;;;5.80;99.90;;;;;;5064721;28;20020;-90
2024/01/05 07:29:29;;;;;;;3.05;2.00;;;5.90;99.90;;;;;;5080407;28;20071;-91
2024/01/05 07:31:54;;;;;;;7.28;3.03;;;5.90;99.90;;;;;;5063882;28;20029;-91
2024/01/05 07:34:20;;;;;;;5.75;2.95;;;6.00;99.90;;;;;;5065292;28;20020;-90
2024/01/05 07:36:46;;;;;;;3.83;2.85;;;5.90;99.90;;;;;;5082005;28;20032;-91
2024/01/05 07:39:12;;;;;;;6.10;2.60;;;6.00;99.90;;;;;;5081784;28;20024;-90
2024/01/05 07:41:38;;;;;;;5.93;2.72;;;5.90;99.90;;;;;;5082263;28;20017;-92
2024/01/05 07:44:05;;;;;;;5.10;2.78;;;5.90;99.90;;;;;;5082091;28;20088;-92
2024/01/05 07:46:31;;;;;;;8.32;3.10;;;5.90;99.90;;;;;;5083262;28;20032;-91
2024/01/05 07:48:57;;;;;;;5.53;2.97;;;6.00;99.90;;;;;;5063190;28;20028;-90
2024/01/05 07:51:23;;;;;;;8.27;3.88;;;6.00;99.90;;;;;;5078672;28;20052;-91
2024/01/05 07:53:49;;;;;;;7.15;3.97;;;6.00;99.90;;;;;;5080191;28;20036;-90
2024/01/05 07:56:18;;;;;;;7.22;3.58;;;6.00;99.90;;;;;;5079665;28;20020;-94
2024/01/05 07:58:44;;;;;;;10.20;3.33;;;6.10;99.90;;;;;;5058517;28;20025;-90
2024/01/05 08:01:28;;;;;;;7.38;4.18;;;6.00;99.90;;;;;;5079385;28;20031;-92
2024/01/05 08:03:54;;;;;;;6.32;3.80;;;6.10;99.90;;;;;;5081634;28;20102;-91
2024/01/05 08:06:20;;;;;;;6.25;3.30;;;6.00;99.90;;;;;;5080495;28;20032;-92
2024/01/05 08:08:50;;;;;;;7.53;3.38;;;6.10;99.90;;;;;;5080622;28;20040;-91
2024/01/05 08:11:16;;;;;;;6.78;3.70;;;6.20;99.90;;;;;;5075834;28;20025;-90
2024/01/05 08:13:44;;;;;;;6.95;3.20;;;6.20;99.90;;;;;;5080154;28;20045;-91
2024/01/05 08:16:10;;;;;;;6.38;3.22;;;6.20;99.90;;;;;;5079629;28;20035;-91
2024/01/05 08:18:36;;;;;;;7.82;2.83;;;6.30;99.90;;;;;;5063243;28;20048;-92
2024/01/05 08:21:02;;;;;;;7.13;3.75;;;6.20;99.90;;;;;;5080410;28;20016;-91
2024/01/05 08:23:29;;;;;;;9.30;3.15;;;6.40;99.90;;;;;;5080035;28;20074;-92
2024/01/05 08:25:55;;;;;;;6.20;2.85;;;6.40;99.90;;;;;;5080078;28;20038;-92
2024/01/05 08:28:20;;;;;;;7.32;2.90;;;6.40;99.90;;;;;;5067326;28;20020;-91
2024/01/05 08:30:46;;;;;;;4.40;3.30;;;6.50;99.90;;;;;;5062341;28;20032;-91
2024/01/05 08:33:12;;;;;;;5.95;3.78;;;6.50;99.90;;;;;;5062131;28;20021;-90
2024/01/05 08:35:38;;;;;;;7.43;3.75;;;6.50;99.90;;;;;;5076159;28;20037;-93
2024/01/05 08:38:04;;;;;;;9.30;2.80;;;6.60;99.90;;;;;;5080691;28;20024;-93
2024/01/05 08:40:30;;;;;;;6.25;3.25;;;6.60;99.90;;;;;;5078420;28;20012;-91
2024/01/05 08:42:57;;;;;;;4.93;3.00;;;6.60;99.90;;;;;;5079219;28;20029;-91
2024/01/05 08:45:22;;;;;;;8.77;4.18;;;6.60;99.90;;;;;;5079028;28;20032;-92
2024/01/05 08:47:48;;;;;;;16.90;5.55;;;6.70;99.90;;;;;;5080619;28;20462;-90
2024/01/05 08:50:17;;;;;;;10.38;4.85;;;6.80;99.90;;;;;;5078116;28;20025;-92
2024/01/05 08:52:43;;;;;;;8.65;5.35;;;6.80;99.90;;;;;;5049307;28;20074;-92
2024/01/05 08:55:09;;;;;;;6.18;3.03;;;6.90;99.90;;;;;;5065121;28;20032;-93
2024/01/05 08:57:35;;;;;;;5.97;3.25;;;6.90;99.90;;;;;;5081233;28;20043;-91
2024/01/05 09:00:01;;;;;;;7.63;3.83;;;6.90;99.90;;;;;;5084088;28;20020;-92
2024/01/05 09:02:30;;;;;;;7.25;3.40;;;6.90;99.90;;;;;;5084515;28;20043;-92
2024/01/05 09:04:57;;;;;;;4.47;2.95;;;7.00;99.90;;;;;;5089520;28;20035;-89
2024/01/05 09:07:23;;;;;;;8.80;3.35;;;7.00;99.90;;;;;;5086802;28;20016;-90
2024/01/05 09:09:48;;;;;;;5.50;2.83;;;7.00;99.90;;;;;;5091616;28;20031;-92
2024/01/05 09:12:14;;;;;;;10.13;3.67;;;7.00;99.90;;;;;;5092925;28;20032;-91
2024/01/05 09:14:40;;;;;;;5.95;3.20;;;7.10;99.90;;;;;;5085495;28;20580;-91
2024/01/05 09:17:05;;;;;;;6.28;3.10;;;7.20;99.90;;;;;;5070092;28;20028;-92
2024/01/05 09:19:32;;;;;;;6.65;3.50;;;7.20;99.90;;;;;;5086636;28;20037;-92
2024/01/05 09:21:59;;;;;;;4.82;2.78;;;7.30;99.90;;;;;;5089937;28;20095;-91
2024/01/05 09:24:25;;;;;;;9.40;3.05;;;7.30;99.90;;;;;;5093250;28;20020;-92
2024/01/05 09:26:50;;;;;;;5.85;2.65;;;7.40;99.90;;;;;;5093422;28;20076;-92
2024/01/05 09:29:16;;;;;;;5.95;2.97;;;7.50;99.90;;;;;;5089978;28;20036;-91
2024/01/05 09:31:46;;;;;;;8.75;2.80;;;7.60;99.90;;;;;;5090661;28;20104;-91
2024/01/05 09:34:12;;;;;;;8.20;3.38;;;7.60;99.80;;;;;;5086964;28;20037;-90
2024/01/05 09:36:41;;;;;;;4.88;3.03;;;7.70;99.70;;;;;;5062907;28;20060;-91
2024/01/05 09:39:09;;;;;;;5.00;2.85;;;7.80;99.60;;;;;;5088639;28;20039;-92
2024/01/05 09:41:34;;;;;;;7.50;6.90;;;7.90;98.90;;;;;;5078771;28;20027;-90
2024/01/05 09:44:02;;;;;;;5.68;2.63;;;7.90;98.90;;;;;;5093431;28;20106;-90
2024/01/05 09:46:28;;;;;;;9.55;3.13;;;8.00;97.90;;;;;;5084611;28;20035;-92
2024/01/05 09:48:58;;;;;;;3.90;3.00;;;8.00;98.50;;;;;;5092979;28;20029;-92
2024/01/05 09:51:26;;;;;;;4.75;2.60;;;8.10;98.70;;;;;;5093636;28;20601;-94
2024/01/05 09:53:52;;;;;;;6.53;4.57;;;8.20;99.30;;;;;;5085941;28;20036;-90
2024/01/05 09:56:19;;;;;;;5.30;2.97;;;8.20;98.50;;;;;;5091542;28;20033;-92
2024/01/05 09:58:45;;;;;;;7.35;3.80;;;8.20;98.80;;;;;;5090385;28;20035;-91
2024/01/05 10:01:21;;;;;;;5.68;2.80;;;8.20;98.70;;;;;;5096166;28;20016;-92
2024/01/05 10:03:47;;;;;;;4.75;2.88;;;8.30;99.10;;;;;;5096442;28;20035;-91
2024/01/05 10:06:17;;;;;;;10.32;2.92;;;8.30;98.30;;;;;;5104993;28;20024;-91
2024/01/05 10:08:43;;;;;;;3.42;2.53;;;8.40;97.50;;;;;;5081745;28;20028;-90
2024/01/05 10:11:08;;;;;;;6.60;2.83;;;8.50;98.50;;;;;;5104738;28;20036;-93
2024/01/05 10:13:36;;;;;;;5.93;2.47;;;8.60;97.30;;;;;;5089946;28;20020;-92
2024/01/05 10:16:02;;;;;;;4.63;4.03;;;8.60;96.70;;;;;;5090030;28;20028;-90
2024/01/05 10:18:29;;;;;;;6.00;5.25;;;8.70;96.80;;;;;;5087908;28;20317;-92
2024/01/05 10:20:55;;;;;;;5.80;2.83;;;8.80;96.40;;;;;;5086172;28;20078;-92
2024/01/05 10:23:21;;;;;;;3.40;2.88;;;8.90;97.70;;;;;;5083819;28;20023;-92
2024/01/05 10:25:47;;;;;;;4.30;3.90;;;9.00;95.80;;;;;;5090926;28;20056;-92
2024/01/05 10:28:32;;;;;;;4.18;1.75;;;9.10;95.60;;;;;;5085038;28;20055;-92
2024/01/05 10:31:16;;;;;;;4.40;3.08;;;9.20;94.70;;;;;;5075884;28;20043;-93
2024/01/05 10:33:55;;;;;;;4.50;2.30;;;9.30;93.80;;;;;;5059718;28;20129;-93
2024/01/05 10:36:22;;;;;;;8.07;3.03;;;9.40;94.50;;;;;;5081963;28;20406;-91
2024/01/05 10:38:48;;;;;;;5.57;2.65;;;9.50;92.10;;;;;;5082426;28;20036;-93
2024/01/05 10:41:23;;;;;;;10.10;6.88;;;9.60;92.80;;;;;;5085741;28;20021;-91
2024/01/05 10:43:49;;;;;;;;;;;9.70;91.10;;;;;;5078286;28;20088;-92
2024/01/05 10:46:17;;;;;;;5.97;5.15;;;9.70;90.20;;;;;;5085347;28;19925;-92
2024/01/05 10:48:45;;;;;;;6.38;4.55;;;9.70;89.90;;;;;;5088160;28;20518;-92
2024/01/05 10:51:23;;;;;;;7.18;3.22;;;9.70;90.70;;;;;;5083614;28;20116;-92
2024/01/05 10:53:50;;;;;;;3.65;2.67;;;9.70;90.00;;;;;;5084164;28;20037;-92
2024/01/05 10:56:19;;;;;;;5.38;3.92;;;9.80;89.90;;;;;;5082575;28;20051;-94
2024/01/05 10:58:48;;;;;;;6.20;3.53;;;9.80;89.30;;;;;;5084357;28;20071;-94
2024/01/05 11:01:18;;;;;;;5.53;4.10;;;9.80;89.90;;;;;;5065682;28;20021;-91
2024/01/05 11:03:50;;;;;;;4.68;4.40;;;9.80;90.10;;;;;;5068171;28;20071;-92
2024/01/05 11:06:19;;;;;;;4.38;1.85;;;9.70;92.10;;;;;;5083537;28;20544;-93
2024/01/05 11:08:56;;;;;;;5.90;3.08;;;9.70;90.50;;;;;;5054228;28;20109;-92
2024/01/05 11:11:40;;;;;;;7.05;3.33;;;9.70;91.20;;;;;;5072201;28;20148;-93
2024/01/05 11:14:39;;;;;;;5.82;2.83;;;9.80;92.20;;;;;;5064700;28;20071;-91
2024/01/05 11:17:45;;;;;;;4.60;3.47;;;9.80;89.30;;;;;;5067275;28;20035;-94
2024/01/05 11:20:39;;;;;;;3.92;3.50;;;9.80;90.10;;;;;;5004050;28;20039;-94
2024/01/05 11:23:08;;;;;;;5.38;2.65;;;9.80;89.00;;;;;;5062832;28;20033;-92
2024/01/05 11:25:34;;;;;;;4.45;1.85;;;9.80;89.90;;;;;;5050681;28;20476;-92
2024/01/05 11:27:59;;;;;;;5.18;4.13;;;9.80;89.10;;;;;;5062557;28;20033;-93
2024/01/05 11:30:41;;;;;;;4.97;4.40;;;9.80;89.20;;;;;;5066088;28;20032;-93
2024/01/05 11:33:09;;;;;;;5.43;3.92;;;9.70;89.30;;;;;;5061924;28;20044;-91
2024/01/05 11:35:42;;;;;;;8.75;2.70;;;9.80;89.30;;;;;;5059397;28;20021;-92
2024/01/05 11:38:24;;;;;;;7.45;2.22;;;9.80;89.40;;;;;;5064539;28;20387;-91
2024/01/05 11:40:50;;;;;;;4.07;2.95;;;9.80;90.60;;;;;;5066346;28;20557;-89
2024/01/05 11:43:33;;;;;;;6.10;1.77;;;9.80;90.50;;;;;;5058623;28;20032;-95
2024/01/05 11:45:59;;;;;;;4.00;2.58;;;9.70;90.20;;;;;;5045589;28;20025;-95
2024/01/05 11:48:36;;;;;;;4.97;3.83;;;9.60;89.90;;;;;;5051023;28;20082;-93
2024/01/05 11:51:02;;;;;;;5.03;3.65;;;9.70;88.70;;;;;;5067155;28;20078;-92
2024/01/05 11:53:29;;;;;;;4.13;3.83;;;9.60;87.40;;;;;;5062804;28;20029;-93
2024/01/05 11:55:56;;;;;;;4.25;3.30;;;9.70;88.70;;;;;;5071036;28;20140;-90
2024/01/05 11:58:28;;;;;;;4.68;2.13;;;9.60;88.50;;;;;;5067885;28;20399;-92
2024/01/05 12:00:56;;;;;;;5.72;5.05;;;9.60;89.00;;;;;;5059615;28;20021;-94
2024/01/05 12:03:24;;;;;;;4.72;3.00;;;9.60;88.40;;;;;;5065902;28;20856;-91
2024/01/05 12:05:50;;;;;;;;;;;9.60;88.00;;;;;;5075385;28;20028;-91
2024/01/05 12:08:16;;;;;;;8.55;5.57;;;9.60;88.90;;;;;;5063807;28;19912;-92
2024/01/05 12:10:42;;;;;;;6.10;4.50;;;9.70;89.40;;;;;;5067602;28;20047;-91
2024/01/05 12:13:08;;;;;;;4.40;3.28;;;9.60;88.40;;;;;;5059421;28;20039;-92
2024/01/05 12:15:35;;;;;;;4.13;3.13;;;9.60;90.30;;;;;;5061195;28;20048;-91
2024/01/05 12:18:07;;;;;;;8.65;4.35;;;9.60;89.40;;;;;;5063358;28;20133;-92
2024/01/05 12:20:34;;;;;;;5.93;4.40;;;9.60;90.50;;;;;;5051295;28;20525;-93
2024/01/05 12:22:59;;;;;;;6.25;4.80;;;9.60;89.30;;;;;;5044729;28;20071;-92
2024/01/05 12:25:26;;;;;;;4.80;3.90;;;9.70;89.00;;;;;;5062033;28;20056;-94
2024/01/05 12:27:52;;;;;;;5.05;3.20;;;9.70;88.50;;;;;;5069984;28;20032;-89
2024/01/05 12:30:19;;;;;;;6.32;3.20;;;9.80;87.10;;;;;;5060087;28;20029;-90
2024/01/05 12:32:46;;;;;;;3.70;3.15;;;9.80;87.10;;;;;;5059981;28;20043;-92
2024/01/05 12:35:12;;;;;;;5.93;4.95;;;9.80;86.40;;;;;;5067453;28;20070;-93
2024/01/05 12:37:49;;;;;;;4.60;4.05;;;9.90;87.20;;;;;;5064789;28;20020;-93
2024/01/05 12:40:20;;;;;;;7.72;4.30;;;10.00;85.90;;;;;;5047747;28;20056;-94
2024/01/05 12:42:46;;;;;;;5.97;5.28;;;10.10;86.20;;;;;;5059304;28;20033;-92
2024/01/05 12:45:11;;;;;;;7.30;3.92;;;10.00;84.50;;;;;;5058633;28;20107;-94
2024/01/05 12:47:37;;;;;;;5.93;2.25;;;10.10;85.60;;;;;;5064754;28;20344;-92
2024/01/05 12:50:03;;;;;;;6.63;5.57;;;10.20;85.10;;;;;;5061214;28;20037;-92
2024/01/05 12:52:38;;;;;;;5.60;3.85;;;10.20;84.30;;;;;;5058850;28;20024;-92
2024/01/05 12:55:04;;;;;;;5.90;2.65;;;10.40;83.30;;;;;;5063249;28;20637;-93